sensor_id;sensor_type;location;lat;lon;timestamp;temperature;humidity
8043;DHT22;4064;48.132;11.366;2023-02-24T00:01:54;5.00;99.90
8043;DHT22;4064;48.132;11.366;2023-02-24T00:04:33;4.90;99.90
8043;DHT22;4064;48.132;11.366;2023-02-24T00:07:00;4.90;99.90
8043;DHT22;4064;48.132;11.366;2023-02-24T00:09:28;4.90;99.90
8043;DHT22;4064;48.132;11.366;2023-02-24T00:11:58;4.90;99.90
8043;DHT22;4064;48.132;11.366;2023-02-24T00:14:28;4.90;99.90
8043;DHT22;4064;48.132;11.366;2023-02-24T00:16:54;4.90;99.90
8043;DHT22;4064;48.132;11.366;2023-02-24T00:19:22;4.90;99.90
8043;DHT22;4064;48.132;11.366;2023-02-24T00:21:48;4.80;99.90
8043;DHT22;4064;48.132;11.366;2023-02-24T00:24:16;4.80;99.90
8043;DHT22;4064;48.132;11.366;2023-02-24T00:26:43;4.70;99.90
8043;DHT22;4064;48.132;11.366;2023-02-24T00:29:11;4.70;99.90
8043;DHT22;4064;48.132;11.366;2023-02-24T00:31:38;4.60;99.90
8043;DHT22;4064;48.132;11.366;2023-02-24T00:34:06;4.60;99.90
8043;DHT22;4064;48.132;11.366;2023-02-24T00:36:32;4.60;99.90
8043;DHT22;4064;48.132;11.366;2023-02-24T00:39:01;4.50;99.90
8043;DHT22;4064;48.132;11.366;2023-02-24T00:41:29;4.50;99.90
8043;DHT22;4064;48.132;11.366;2023-02-24T00:43:57;4.50;99.90
8043;DHT22;4064;48.132;11.366;2023-02-24T00:46:25;4.40;99.90
8043;DHT22;4064;48.132;11.366;2023-02-24T00:48:53;4.40;99.90
8043;DHT22;4064;48.132;11.366;2023-02-24T00:51:21;4.40;99.90
8043;DHT22;4064;48.132;11.366;2023-02-24T00:53:54;4.40;99.90
8043;DHT22;4064;48.132;11.366;2023-02-24T00:56:24;4.50;99.90
8043;DHT22;4064;48.132;11.366;2023-02-24T00:58:52;4.60;99.90
8043;DHT22;4064;48.132;11.366;2023-02-24T01:01:19;4.60;99.90
8043;DHT22;4064;48.132;11.366;2023-02-24T01:03:46;4.60;99.90
8043;DHT22;4064;48.132;11.366;2023-02-24T01:06:20;4.60;99.90
8043;DHT22;4064;48.132;11.366;2023-02-24T01:08:51;4.60;99.90
8043;DHT22;4064;48.132;11.366;2023-02-24T01:11:20;4.60;99.90
8043;DHT22;4064;48.132;11.366;2023-02-24T01:14:25;4.70;99.90
8043;DHT22;4064;48.132;11.366;2023-02-24T01:16:52;4.70;99.90
8043;DHT22;4064;48.132;11.366;2023-02-24T01:19:20;4.70;99.90
8043;DHT22;4064;48.132;11.366;2023-02-24T01:21:47;4.80;99.90
8043;DHT22;4064;48.132;11.366;2023-02-24T01:24:17;4.80;99.90
8043;DHT22;4064;48.132;11.366;2023-02-24T01:26:43;4.70;99.90
8043;DHT22;4064;48.132;11.366;2023-02-24T01:29:09;4.70;99.90
8043;DHT22;4064;48.132;11.366;2023-02-24T01:31:38;4.80;99.90
8043;DHT22;4064;48.132;11.366;2023-02-24T01:34:09;4.70;99.90
8043;DHT22;4064;48.132;11.366;2023-02-24T01:36:36;4.70;99.90
8043;DHT22;4064;48.132;11.366;2023-02-24T01:39:03;4.60;99.90
8043;DHT22;4064;48.132;11.366;2023-02-24T01:41:40;4.50;99.90
8043;DHT22;4064;48.132;11.366;2023-02-24T01:46:44;4.40;99.90
8043;DHT22;4064;48.132;11.366;2023-02-24T01:49:14;4.40;99.90
8043;DHT22;4064;48.132;11.366;2023-02-24T01:51:51;4.40;99.90
8043;DHT22;4064;48.132;11.366;2023-02-24T01:54:20;4.30;99.90
8043;DHT22;4064;48.132;11.366;2023-02-24T01:56:51;4.20;99.90
8043;DHT22;4064;48.132;11.366;2023-02-24T01:59:23;4.20;99.90
8043;DHT22;4064;48.132;11.366;2023-02-24T02:01:51;4.10;99.90
8043;DHT22;4064;48.132;11.366;2023-02-24T02:04:37;4.10;99.90
8043;DHT22;4064;48.132;11.366;2023-02-24T02:07:04;4.10;99.90
8043;DHT22;4064;48.132;11.366;2023-02-24T02:09:31;4.00;99.90
8043;DHT22;4064;48.132;11.366;2023-02-24T02:11:58;4.00;99.90
8043;DHT22;4064;48.132;11.366;2023-02-24T02:14:26;3.90;99.90
8043;DHT22;4064;48.132;11.366;2023-02-24T02:20:21;3.80;99.90
8043;DHT22;4064;48.132;11.366;2023-02-24T02:41:53;3.50;99.90
8043;DHT22;4064;48.132;11.366;2023-02-24T02:47:03;3.40;99.90
8043;DHT22;4064;48.132;11.366;2023-02-24T02:49:31;3.30;99.90
8043;DHT22;4064;48.132;11.366;2023-02-24T02:52:09;3.30;99.90
8043;DHT22;4064;48.132;11.366;2023-02-24T02:54:41;3.30;99.90
8043;DHT22;4064;48.132;11.366;2023-02-24T02:57:30;3.30;99.90
8043;DHT22;4064;48.132;11.366;2023-02-24T03:00:11;3.30;99.90
8043;DHT22;4064;48.132;11.366;2023-02-24T03:02:41;3.30;99.90
8043;DHT22;4064;48.132;11.366;2023-02-24T03:05:09;3.20;99.90
8043;DHT22;4064;48.132;11.366;2023-02-24T03:07:39;3.20;99.90
8043;DHT22;4064;48.132;11.366;2023-02-24T03:10:09;3.10;99.90
8043;DHT22;4064;48.132;11.366;2023-02-24T03:12:43;3.10;99.90
8043;DHT22;4064;48.132;11.366;2023-02-24T03:15:13;3.10;99.90
8043;DHT22;4064;48.132;11.366;2023-02-24T03:17:42;3.00;99.90
8043;DHT22;4064;48.132;11.366;2023-02-24T03:20:26;3.00;99.90
8043;DHT22;4064;48.132;11.366;2023-02-24T03:23:03;3.00;99.90
8043;DHT22;4064;48.132;11.366;2023-02-24T03:25:45;3.00;99.90
8043;DHT22;4064;48.132;11.366;2023-02-24T03:28:18;3.00;99.90
8043;DHT22;4064;48.132;11.366;2023-02-24T03:30:53;3.00;99.90
8043;DHT22;4064;48.132;11.366;2023-02-24T03:33:37;3.00;99.90
8043;DHT22;4064;48.132;11.366;2023-02-24T03:36:05;2.90;99.90
8043;DHT22;4064;48.132;11.366;2023-02-24T03:38:32;3.00;99.90
8043;DHT22;4064;48.132;11.366;2023-02-24T03:40:58;3.00;99.90
8043;DHT22;4064;48.132;11.366;2023-02-24T03:43:30;3.00;99.90
8043;DHT22;4064;48.132;11.366;2023-02-24T03:45:56;3.00;99.90
8043;DHT22;4064;48.132;11.366;2023-02-24T03:48:24;3.10;99.90
8043;DHT22;4064;48.132;11.366;2023-02-24T03:50:51;3.10;99.90
8043;DHT22;4064;48.132;11.366;2023-02-24T04:04:23;3.20;99.90
8043;DHT22;4064;48.132;11.366;2023-02-24T04:12:56;3.40;99.90
8043;DHT22;4064;48.132;11.366;2023-02-24T04:15:40;3.30;99.90
8043;DHT22;4064;48.132;11.366;2023-02-24T04:18:23;3.30;99.90
8043;DHT22;4064;48.132;11.366;2023-02-24T04:20:53;3.30;99.90
8043;DHT22;4064;48.132;11.366;2023-02-24T04:23:27;3.30;99.90
8043;DHT22;4064;48.132;11.366;2023-02-24T04:25:54;3.30;99.90
8043;DHT22;4064;48.132;11.366;2023-02-24T04:28:21;3.30;99.90
8043;DHT22;4064;48.132;11.366;2023-02-24T04:30:50;3.30;99.90
8043;DHT22;4064;48.132;11.366;2023-02-24T04:33:17;3.30;99.90
8043;DHT22;4064;48.132;11.366;2023-02-24T04:35:45;3.30;99.90
8043;DHT22;4064;48.132;11.366;2023-02-24T04:38:11;3.30;99.90
8043;DHT22;4064;48.132;11.366;2023-02-24T04:40:37;3.30;99.90
8043;DHT22;4064;48.132;11.366;2023-02-24T04:43:05;3.30;99.90
8043;DHT22;4064;48.132;11.366;2023-02-24T04:45:32;3.40;99.90
8043;DHT22;4064;48.132;11.366;2023-02-24T04:48:00;3.40;99.90
8043;DHT22;4064;48.132;11.366;2023-02-24T04:50:32;3.40;99.90
8043;DHT22;4064;48.132;11.366;2023-02-24T04:53:03;3.40;99.90
8043;DHT22;4064;48.132;11.366;2023-02-24T04:55:35;3.40;99.90
8043;DHT22;4064;48.132;11.366;2023-02-24T04:58:05;3.40;99.90
8043;DHT22;4064;48.132;11.366;2023-02-24T05:00:31;3.30;99.90
8043;DHT22;4064;48.132;11.366;2023-02-24T05:03:02;3.30;99.90
8043;DHT22;4064;48.132;11.366;2023-02-24T05:05:30;3.30;99.90
8043;DHT22;4064;48.132;11.366;2023-02-24T05:08:04;3.20;99.90
8043;DHT22;4064;48.132;11.366;2023-02-24T05:10:37;3.10;99.90
8043;DHT22;4064;48.132;11.366;2023-02-24T05:13:04;3.10;99.90
8043;DHT22;4064;48.132;11.366;2023-02-24T05:15:38;3.10;99.90
8043;DHT22;4064;48.132;11.366;2023-02-24T05:18:06;3.10;99.90
8043;DHT22;4064;48.132;11.366;2023-02-24T05:20:39;3.00;99.90
8043;DHT22;4064;48.132;11.366;2023-02-24T05:23:28;3.00;99.90
8043;DHT22;4064;48.132;11.366;2023-02-24T05:25:57;3.00;99.90
8043;DHT22;4064;48.132;11.366;2023-02-24T05:28:25;3.00;99.90
8043;DHT22;4064;48.132;11.366;2023-02-24T05:30:52;3.10;99.90
8043;DHT22;4064;48.132;11.366;2023-02-24T05:33:20;3.00;99.90
8043;DHT22;4064;48.132;11.366;2023-02-24T05:35:47;3.00;99.90
8043;DHT22;4064;48.132;11.366;2023-02-24T05:38:13;3.10;99.90
8043;DHT22;4064;48.132;11.366;2023-02-24T05:40:42;3.10;99.90
8043;DHT22;4064;48.132;11.366;2023-02-24T05:43:12;3.20;99.90
8043;DHT22;4064;48.132;11.366;2023-02-24T05:45:43;3.20;99.90
8043;DHT22;4064;48.132;11.366;2023-02-24T05:48:10;3.20;99.90
8043;DHT22;4064;48.132;11.366;2023-02-24T05:50:37;3.20;99.90
8043;DHT22;4064;48.132;11.366;2023-02-24T05:53:03;3.20;99.90
8043;DHT22;4064;48.132;11.366;2023-02-24T05:55:29;3.20;99.90
8043;DHT22;4064;48.132;11.366;2023-02-24T05:57:56;3.30;99.90
8043;DHT22;4064;48.132;11.366;2023-02-24T06:00:23;3.30;99.90
8043;DHT22;4064;48.132;11.366;2023-02-24T06:02:50;3.30;99.90
8043;DHT22;4064;48.132;11.366;2023-02-24T06:05:19;3.30;99.90
8043;DHT22;4064;48.132;11.366;2023-02-24T06:07:56;3.30;99.90
8043;DHT22;4064;48.132;11.366;2023-02-24T06:10:32;3.30;99.90
8043;DHT22;4064;48.132;11.366;2023-02-24T06:13:02;3.20;99.90
8043;DHT22;4064;48.132;11.366;2023-02-24T06:15:28;3.20;99.90
8043;DHT22;4064;48.132;11.366;2023-02-24T06:17:54;3.20;99.90
8043;DHT22;4064;48.132;11.366;2023-02-24T06:20:23;3.20;99.90
8043;DHT22;4064;48.132;11.366;2023-02-24T06:22:52;3.20;99.90
8043;DHT22;4064;48.132;11.366;2023-02-24T06:25:20;3.20;99.90
8043;DHT22;4064;48.132;11.366;2023-02-24T06:27:52;3.10;99.90
8043;DHT22;4064;48.132;11.366;2023-02-24T06:30:23;3.10;99.90
8043;DHT22;4064;48.132;11.366;2023-02-24T06:32:49;3.10;99.90
8043;DHT22;4064;48.132;11.366;2023-02-24T06:35:17;3.10;99.90
8043;DHT22;4064;48.132;11.366;2023-02-24T06:37:43;3.20;99.90
8043;DHT22;4064;48.132;11.366;2023-02-24T06:40:10;3.20;99.90
8043;DHT22;4064;48.132;11.366;2023-02-24T06:42:46;3.30;99.90
8043;DHT22;4064;48.132;11.366;2023-02-24T06:45:13;3.30;99.90
8043;DHT22;4064;48.132;11.366;2023-02-24T06:47:40;3.40;99.90
8043;DHT22;4064;48.132;11.366;2023-02-24T06:50:09;3.50;99.90
8043;DHT22;4064;48.132;11.366;2023-02-24T06:52:35;3.60;99.90
8043;DHT22;4064;48.132;11.366;2023-02-24T06:55:02;3.80;99.90
8043;DHT22;4064;48.132;11.366;2023-02-24T06:57:31;3.80;99.90
8043;DHT22;4064;48.132;11.366;2023-02-24T07:00:00;3.90;99.90
8043;DHT22;4064;48.132;11.366;2023-02-24T07:02:41;4.00;99.90
8043;DHT22;4064;48.132;11.366;2023-02-24T07:05:07;4.10;99.90
8043;DHT22;4064;48.132;11.366;2023-02-24T07:07:39;4.10;99.90
8043;DHT22;4064;48.132;11.366;2023-02-24T07:10:11;4.20;99.90
8043;DHT22;4064;48.132;11.366;2023-02-24T07:12:40;4.20;99.90
8043;DHT22;4064;48.132;11.366;2023-02-24T07:15:09;4.20;99.90
8043;DHT22;4064;48.132;11.366;2023-02-24T07:17:35;4.40;99.90
8043;DHT22;4064;48.132;11.366;2023-02-24T07:20:01;4.60;99.90
8043;DHT22;4064;48.132;11.366;2023-02-24T07:22:36;5.00;99.90
8043;DHT22;4064;48.132;11.366;2023-02-24T07:25:03;5.30;99.90
8043;DHT22;4064;48.132;11.366;2023-02-24T07:27:29;5.70;99.90
8043;DHT22;4064;48.132;11.366;2023-02-24T07:29:55;5.90;99.90
8043;DHT22;4064;48.132;11.366;2023-02-24T07:32:21;6.00;99.90
8043;DHT22;4064;48.132;11.366;2023-02-24T07:34:47;6.40;99.90
8043;DHT22;4064;48.132;11.366;2023-02-24T07:37:13;6.80;99.90
8043;DHT22;4064;48.132;11.366;2023-02-24T07:39:39;7.20;99.90
8043;DHT22;4064;48.132;11.366;2023-02-24T07:42:09;7.40;99.90
8043;DHT22;4064;48.132;11.366;2023-02-24T07:44:37;7.30;99.90
8043;DHT22;4064;48.132;11.366;2023-02-24T07:47:03;7.20;99.90
8043;DHT22;4064;48.132;11.366;2023-02-24T07:49:32;7.00;99.90
8043;DHT22;4064;48.132;11.366;2023-02-24T07:51:58;6.80;99.90
8043;DHT22;4064;48.132;11.366;2023-02-24T07:54:25;6.70;99.90
8043;DHT22;4064;48.132;11.366;2023-02-24T07:56:55;6.50;99.90
8043;DHT22;4064;48.132;11.366;2023-02-24T07:59:22;6.50;99.90
8043;DHT22;4064;48.132;11.366;2023-02-24T08:01:48;6.50;99.90
8043;DHT22;4064;48.132;11.366;2023-02-24T08:04:19;6.50;99.90
8043;DHT22;4064;48.132;11.366;2023-02-24T08:06:48;6.60;99.90
8043;DHT22;4064;48.132;11.366;2023-02-24T08:09:22;6.60;99.90
8043;DHT22;4064;48.132;11.366;2023-02-24T08:12:19;6.60;99.90
8043;DHT22;4064;48.132;11.366;2023-02-24T08:14:47;6.80;99.90
8043;DHT22;4064;48.132;11.366;2023-02-24T08:17:25;6.90;99.90
8043;DHT22;4064;48.132;11.366;2023-02-24T08:19:53;7.10;99.90
8043;DHT22;4064;48.132;11.366;2023-02-24T08:22:53;7.20;99.90
8043;DHT22;4064;48.132;11.366;2023-02-24T08:25:25;7.20;99.90
8043;DHT22;4064;48.132;11.366;2023-02-24T08:28:00;7.30;99.90
8043;DHT22;4064;48.132;11.366;2023-02-24T08:30:30;7.30;99.90
8043;DHT22;4064;48.132;11.366;2023-02-24T08:33:04;7.20;99.90
8043;DHT22;4064;48.132;11.366;2023-02-24T08:35:32;7.20;99.90
8043;DHT22;4064;48.132;11.366;2023-02-24T08:38:06;7.20;99.90
8043;DHT22;4064;48.132;11.366;2023-02-24T08:40:38;7.20;99.90
8043;DHT22;4064;48.132;11.366;2023-02-24T08:43:16;7.20;99.90
8043;DHT22;4064;48.132;11.366;2023-02-24T08:45:47;7.20;99.90
8043;DHT22;4064;48.132;11.366;2023-02-24T08:48:18;7.20;99.90
8043;DHT22;4064;48.132;11.366;2023-02-24T08:51:05;7.20;99.90
8043;DHT22;4064;48.132;11.366;2023-02-24T08:53:32;7.30;99.90
8043;DHT22;4064;48.132;11.366;2023-02-24T08:56:00;7.50;99.90
8043;DHT22;4064;48.132;11.366;2023-02-24T08:58:35;7.70;99.90
8043;DHT22;4064;48.132;11.366;2023-02-24T09:01:08;8.00;99.90
8043;DHT22;4064;48.132;11.366;2023-02-24T09:03:46;8.30;99.90
8043;DHT22;4064;48.132;11.366;2023-02-24T09:06:15;8.80;99.90
8043;DHT22;4064;48.132;11.366;2023-02-24T09:08:44;9.10;99.90
8043;DHT22;4064;48.132;11.366;2023-02-24T09:11:14;9.40;99.90
8043;DHT22;4064;48.132;11.366;2023-02-24T09:13:42;10.00;99.90
8043;DHT22;4064;48.132;11.366;2023-02-24T09:16:17;11.40;99.90
8043;DHT22;4064;48.132;11.366;2023-02-24T09:18:43;12.50;99.90
8043;DHT22;4064;48.132;11.366;2023-02-24T09:21:11;12.90;99.90
8043;DHT22;4064;48.132;11.366;2023-02-24T09:24:00;13.60;99.90
8043;DHT22;4064;48.132;11.366;2023-02-24T09:26:34;14.10;99.90
8043;DHT22;4064;48.132;11.366;2023-02-24T09:29:14;14.20;99.50
8043;DHT22;4064;48.132;11.366;2023-02-24T09:32:09;14.90;99.90
8043;DHT22;4064;48.132;11.366;2023-02-24T09:34:42;15.50;97.40
8043;DHT22;4064;48.132;11.366;2023-02-24T09:37:12;15.90;95.90
8043;DHT22;4064;48.132;11.366;2023-02-24T09:39:52;16.10;95.60
8043;DHT22;4064;48.132;11.366;2023-02-24T09:42:31;16.10;93.30
8043;DHT22;4064;48.132;11.366;2023-02-24T09:45:17;16.10;93.10
8043;DHT22;4064;48.132;11.366;2023-02-24T09:48:01;16.00;92.90
8043;DHT22;4064;48.132;11.366;2023-02-24T09:50:36;15.70;92.30
8043;DHT22;4064;48.132;11.366;2023-02-24T09:53:27;15.50;92.30
8043;DHT22;4064;48.132;11.366;2023-02-24T09:58:51;14.70;92.00
8043;DHT22;4064;48.132;11.366;2023-02-24T10:01:29;14.40;92.60
8043;DHT22;4064;48.132;11.366;2023-02-24T10:04:19;14.70;92.90
8043;DHT22;4064;48.132;11.366;2023-02-24T10:07:10;15.10;92.70
8043;DHT22;4064;48.132;11.366;2023-02-24T10:09:41;15.30;91.30
8043;DHT22;4064;48.132;11.366;2023-02-24T10:12:18;15.50;91.10
8043;DHT22;4064;48.132;11.366;2023-02-24T10:17:24;15.60;89.30
8043;DHT22;4064;48.132;11.366;2023-02-24T10:19:59;15.60;89.50
8043;DHT22;4064;48.132;11.366;2023-02-24T10:22:50;15.50;90.00
8043;DHT22;4064;48.132;11.366;2023-02-24T10:25:27;15.70;88.10
8043;DHT22;4064;48.132;11.366;2023-02-24T10:33:40;15.40;87.40
8043;DHT22;4064;48.132;11.366;2023-02-24T10:36:19;15.20;87.30
8043;DHT22;4064;48.132;11.366;2023-02-24T10:38:51;14.80;87.70
8043;DHT22;4064;48.132;11.366;2023-02-24T10:41:20;14.40;88.30
8043;DHT22;4064;48.132;11.366;2023-02-24T10:43:54;14.00;89.70
8043;DHT22;4064;48.132;11.366;2023-02-24T10:46:38;14.10;90.60
8043;DHT22;4064;48.132;11.366;2023-02-24T10:49:04;14.40;90.40
8043;DHT22;4064;48.132;11.366;2023-02-24T10:51:40;14.60;89.70
8043;DHT22;4064;48.132;11.366;2023-02-24T10:56:56;15.00;88.20
8043;DHT22;4064;48.132;11.366;2023-02-24T11:00:08;14.80;88.40
8043;DHT22;4064;48.132;11.366;2023-02-24T11:02:57;15.00;89.80
8043;DHT22;4064;48.132;11.366;2023-02-24T11:05:40;15.30;86.60
8043;DHT22;4064;48.132;11.366;2023-02-24T11:08:25;15.10;87.30
8043;DHT22;4064;48.132;11.366;2023-02-24T11:11:17;14.80;87.30
8043;DHT22;4064;48.132;11.366;2023-02-24T11:14:16;14.50;87.70
8043;DHT22;4064;48.132;11.366;2023-02-24T11:17:20;14.40;87.90
8043;DHT22;4064;48.132;11.366;2023-02-24T11:19:59;14.20;88.80
8043;DHT22;4064;48.132;11.366;2023-02-24T11:22:39;14.20;88.80
8043;DHT22;4064;48.132;11.366;2023-02-24T11:28:01;13.70;88.30
8043;DHT22;4064;48.132;11.366;2023-02-24T11:30:36;13.40;89.50
8043;DHT22;4064;48.132;11.366;2023-02-24T11:36:09;13.20;90.30
8043;DHT22;4064;48.132;11.366;2023-02-24T11:38:41;12.90;90.20
8043;DHT22;4064;48.132;11.366;2023-02-24T11:41:41;12.70;91.10
8043;DHT22;4064;48.132;11.366;2023-02-24T11:44:16;12.50;91.60
8043;DHT22;4064;48.132;11.366;2023-02-24T11:47:06;12.30;91.70
8043;DHT22;4064;48.132;11.366;2023-02-24T11:49:43;12.20;92.00
8043;DHT22;4064;48.132;11.366;2023-02-24T11:52:18;12.10;92.30
8043;DHT22;4064;48.132;11.366;2023-02-24T11:54:52;12.00;92.70
8043;DHT22;4064;48.132;11.366;2023-02-24T11:57:34;11.90;93.10
8043;DHT22;4064;48.132;11.366;2023-02-24T12:00:22;11.80;93.10
8043;DHT22;4064;48.132;11.366;2023-02-24T12:03:12;11.80;93.50
8043;DHT22;4064;48.132;11.366;2023-02-24T12:05:42;11.70;93.60
8043;DHT22;4064;48.132;11.366;2023-02-24T12:08:27;11.60;94.00
8043;DHT22;4064;48.132;11.366;2023-02-24T12:11:19;11.50;94.20
8043;DHT22;4064;48.132;11.366;2023-02-24T12:14:12;11.40;94.50
8043;DHT22;4064;48.132;11.366;2023-02-24T12:16:43;11.30;94.80
8043;DHT22;4064;48.132;11.366;2023-02-24T12:19:21;11.20;95.00
8043;DHT22;4064;48.132;11.366;2023-02-24T12:21:58;11.20;95.30
8043;DHT22;4064;48.132;11.366;2023-02-24T12:24:27;11.20;95.70
8043;DHT22;4064;48.132;11.366;2023-02-24T12:29:43;11.20;96.00
8043;DHT22;4064;48.132;11.366;2023-02-24T12:32:21;11.10;96.20
8043;DHT22;4064;48.132;11.366;2023-02-24T12:43:25;11.20;96.70
8043;DHT22;4064;48.132;11.366;2023-02-24T12:51:16;11.00;98.20
8043;DHT22;4064;48.132;11.366;2023-02-24T12:54:12;10.90;98.70
8043;DHT22;4064;48.132;11.366;2023-02-24T12:59:29;10.90;99.60
8043;DHT22;4064;48.132;11.366;2023-02-24T13:13:30;11.00;99.90
8043;DHT22;4064;48.132;11.366;2023-02-24T13:15:58;11.20;99.90
8043;DHT22;4064;48.132;11.366;2023-02-24T13:18:35;11.40;99.90
8043;DHT22;4064;48.132;11.366;2023-02-24T13:21:21;11.60;99.90
8043;DHT22;4064;48.132;11.366;2023-02-24T13:24:20;11.70;99.60
8043;DHT22;4064;48.132;11.366;2023-02-24T13:26:46;11.80;99.40
8043;DHT22;4064;48.132;11.366;2023-02-24T13:29:13;11.80;99.50
8043;DHT22;4064;48.132;11.366;2023-02-24T13:31:50;11.70;99.10
8043;DHT22;4064;48.132;11.366;2023-02-24T13:34:42;11.60;98.90
8043;DHT22;4064;48.132;11.366;2023-02-24T13:37:09;11.40;99.00
8043;DHT22;4064;48.132;11.366;2023-02-24T13:39:37;11.40;99.50
8043;DHT22;4064;48.132;11.366;2023-02-24T13:42:18;11.40;99.50
8043;DHT22;4064;48.132;11.366;2023-02-24T13:45:05;11.30;99.70
8043;DHT22;4064;48.132;11.366;2023-02-24T13:50:39;11.20;99.90
8043;DHT22;4064;48.132;11.366;2023-02-24T13:58:38;10.90;99.90
8043;DHT22;4064;48.132;11.366;2023-02-24T14:01:13;10.80;99.90
8043;DHT22;4064;48.132;11.366;2023-02-24T14:03:43;10.70;99.90
8043;DHT22;4064;48.132;11.366;2023-02-24T14:06:22;10.70;99.90
8043;DHT22;4064;48.132;11.366;2023-02-24T14:08:53;10.60;99.90
8043;DHT22;4064;48.132;11.366;2023-02-24T14:11:24;10.50;99.90
8043;DHT22;4064;48.132;11.366;2023-02-24T14:13:55;10.50;99.90
8043;DHT22;4064;48.132;11.366;2023-02-24T14:16:25;10.40;99.90
8043;DHT22;4064;48.132;11.366;2023-02-24T14:18:59;10.40;99.90
8043;DHT22;4064;48.132;11.366;2023-02-24T14:21:31;10.50;99.90
8043;DHT22;4064;48.132;11.366;2023-02-24T14:26:25;10.40;99.90
8043;DHT22;4064;48.132;11.366;2023-02-24T14:28:59;10.40;99.90
8043;DHT22;4064;48.132;11.366;2023-02-24T14:31:26;10.30;99.90
8043;DHT22;4064;48.132;11.366;2023-02-24T14:34:03;10.30;99.90
8043;DHT22;4064;48.132;11.366;2023-02-24T14:36:34;10.10;99.90
8043;DHT22;4064;48.132;11.366;2023-02-24T14:39:05;10.10;99.90
8043;DHT22;4064;48.132;11.366;2023-02-24T14:41:32;10.00;99.90
8043;DHT22;4064;48.132;11.366;2023-02-24T14:46:56;9.80;99.90
8043;DHT22;4064;48.132;11.366;2023-02-24T14:49:28;9.60;99.90
8043;DHT22;4064;48.132;11.366;2023-02-24T14:57:01;9.30;99.90
8043;DHT22;4064;48.132;11.366;2023-02-24T14:59:34;9.20;99.90
8043;DHT22;4064;48.132;11.366;2023-02-24T15:02:04;9.10;99.90
8043;DHT22;4064;48.132;11.366;2023-02-24T15:04:37;9.00;99.90
8043;DHT22;4064;48.132;11.366;2023-02-24T15:07:17;8.90;99.90
8043;DHT22;4064;48.132;11.366;2023-02-24T15:09:45;8.80;99.90
8043;DHT22;4064;48.132;11.366;2023-02-24T15:12:34;8.80;99.90
8043;DHT22;4064;48.132;11.366;2023-02-24T15:15:04;8.80;99.90
8043;DHT22;4064;48.132;11.366;2023-02-24T15:17:32;8.80;99.90
8043;DHT22;4064;48.132;11.366;2023-02-24T15:20:34;8.80;99.90
8043;DHT22;4064;48.132;11.366;2023-02-24T15:23:00;8.80;99.90
8043;DHT22;4064;48.132;11.366;2023-02-24T15:25:41;8.70;99.90
8043;DHT22;4064;48.132;11.366;2023-02-24T15:28:32;8.70;99.90
8043;DHT22;4064;48.132;11.366;2023-02-24T15:31:13;8.70;99.90
8043;DHT22;4064;48.132;11.366;2023-02-24T15:33:45;8.70;99.90
8043;DHT22;4064;48.132;11.366;2023-02-24T15:36:20;8.60;99.90
8043;DHT22;4064;48.132;11.366;2023-02-24T15:38:53;8.60;99.90
8043;DHT22;4064;48.132;11.366;2023-02-24T15:41:21;8.60;99.90
8043;DHT22;4064;48.132;11.366;2023-02-24T15:43:49;8.60;99.90
8043;DHT22;4064;48.132;11.366;2023-02-24T15:46:31;8.50;99.90
8043;DHT22;4064;48.132;11.366;2023-02-24T15:48:58;8.60;99.90
8043;DHT22;4064;48.132;11.366;2023-02-24T15:51:42;8.60;99.90
8043;DHT22;4064;48.132;11.366;2023-02-24T15:54:28;8.50;99.90
8043;DHT22;4064;48.132;11.366;2023-02-24T15:56:59;8.50;99.90
8043;DHT22;4064;48.132;11.366;2023-02-24T15:59:26;8.50;99.90
8043;DHT22;4064;48.132;11.366;2023-02-24T16:01:52;8.40;99.90
8043;DHT22;4064;48.132;11.366;2023-02-24T16:04:19;8.40;99.90
8043;DHT22;4064;48.132;11.366;2023-02-24T16:06:51;8.40;99.90
8043;DHT22;4064;48.132;11.366;2023-02-24T16:09:30;8.40;99.90
8043;DHT22;4064;48.132;11.366;2023-02-24T16:12:03;8.40;99.90
8043;DHT22;4064;48.132;11.366;2023-02-24T16:14:30;8.30;99.90
8043;DHT22;4064;48.132;11.366;2023-02-24T16:16:57;8.30;99.90
8043;DHT22;4064;48.132;11.366;2023-02-24T16:19:23;8.30;99.90
8043;DHT22;4064;48.132;11.366;2023-02-24T16:21:49;8.20;99.90
8043;DHT22;4064;48.132;11.366;2023-02-24T16:24:15;8.20;99.90
8043;DHT22;4064;48.132;11.366;2023-02-24T16:26:40;8.10;99.90
8043;DHT22;4064;48.132;11.366;2023-02-24T16:29:11;8.10;99.90
8043;DHT22;4064;48.132;11.366;2023-02-24T16:31:38;8.00;99.90
8043;DHT22;4064;48.132;11.366;2023-02-24T16:34:05;8.00;99.90
8043;DHT22;4064;48.132;11.366;2023-02-24T16:36:31;8.00;99.90
8043;DHT22;4064;48.132;11.366;2023-02-24T16:38:57;8.00;99.90
8043;DHT22;4064;48.132;11.366;2023-02-24T16:41:23;7.90;99.90
8043;DHT22;4064;48.132;11.366;2023-02-24T16:43:49;7.90;99.90
8043;DHT22;4064;48.132;11.366;2023-02-24T16:46:18;7.90;99.90
8043;DHT22;4064;48.132;11.366;2023-02-24T16:48:46;7.90;99.90
8043;DHT22;4064;48.132;11.366;2023-02-24T16:51:12;7.80;99.90
8043;DHT22;4064;48.132;11.366;2023-02-24T16:53:39;7.70;99.90
8043;DHT22;4064;48.132;11.366;2023-02-24T16:56:05;7.70;99.90
8043;DHT22;4064;48.132;11.366;2023-02-24T16:58:32;7.60;99.90
8043;DHT22;4064;48.132;11.366;2023-02-24T17:00:59;7.50;99.90
8043;DHT22;4064;48.132;11.366;2023-02-24T17:03:36;7.50;99.90
8043;DHT22;4064;48.132;11.366;2023-02-24T17:06:03;7.40;99.90
8043;DHT22;4064;48.132;11.366;2023-02-24T17:08:29;7.40;99.90
8043;DHT22;4064;48.132;11.366;2023-02-24T17:10:55;7.40;99.90
8043;DHT22;4064;48.132;11.366;2023-02-24T17:13:21;7.40;99.90
8043;DHT22;4064;48.132;11.366;2023-02-24T17:15:49;7.40;99.90
8043;DHT22;4064;48.132;11.366;2023-02-24T17:18:20;7.30;99.90
8043;DHT22;4064;48.132;11.366;2023-02-24T17:20:46;7.30;99.90
8043;DHT22;4064;48.132;11.366;2023-02-24T17:23:12;7.30;99.90
8043;DHT22;4064;48.132;11.366;2023-02-24T17:25:38;7.20;99.90
8043;DHT22;4064;48.132;11.366;2023-02-24T17:28:04;7.20;99.90
8043;DHT22;4064;48.132;11.366;2023-02-24T17:30:32;7.20;99.90
8043;DHT22;4064;48.132;11.366;2023-02-24T17:32:58;7.10;99.90
8043;DHT22;4064;48.132;11.366;2023-02-24T17:35:25;7.10;99.90
8043;DHT22;4064;48.132;11.366;2023-02-24T17:37:51;7.10;99.90
8043;DHT22;4064;48.132;11.366;2023-02-24T17:40:17;7.10;99.90
8043;DHT22;4064;48.132;11.366;2023-02-24T17:42:43;7.00;99.90
8043;DHT22;4064;48.132;11.366;2023-02-24T17:45:10;7.00;99.90
8043;DHT22;4064;48.132;11.366;2023-02-24T17:47:36;6.90;99.90
8043;DHT22;4064;48.132;11.366;2023-02-24T17:50:03;6.90;99.90
8043;DHT22;4064;48.132;11.366;2023-02-24T17:52:30;6.80;99.90
8043;DHT22;4064;48.132;11.366;2023-02-24T17:54:56;6.80;99.90
8043;DHT22;4064;48.132;11.366;2023-02-24T17:57:22;6.80;99.90
8043;DHT22;4064;48.132;11.366;2023-02-24T17:59:48;6.80;99.90
8043;DHT22;4064;48.132;11.366;2023-02-24T18:02:16;6.70;99.90
8043;DHT22;4064;48.132;11.366;2023-02-24T18:04:42;6.70;99.90
8043;DHT22;4064;48.132;11.366;2023-02-24T18:07:09;6.70;99.90
8043;DHT22;4064;48.132;11.366;2023-02-24T18:09:36;6.70;99.90
8043;DHT22;4064;48.132;11.366;2023-02-24T18:12:03;6.70;99.90
8043;DHT22;4064;48.132;11.366;2023-02-24T18:14:29;6.70;99.90
8043;DHT22;4064;48.132;11.366;2023-02-24T18:16:55;6.70;99.90
8043;DHT22;4064;48.132;11.366;2023-02-24T18:19:20;6.70;99.90
8043;DHT22;4064;48.132;11.366;2023-02-24T18:21:46;6.70;99.90
8043;DHT22;4064;48.132;11.366;2023-02-24T18:24:12;6.70;99.90